sensor_id;sensor_type;location;lat;lon;timestamp;P1;durP1;ratioP1;P2;durP2;ratioP2
82777;SDS011;72510;45.128;20.734;2024-01-15T00:06:49;52.97;;;22.75;;
82777;SDS011;72510;45.128;20.734;2024-01-15T00:16:50;45.72;;;23.70;;
82777;SDS011;72510;45.128;20.734;2024-01-15T00:26:52;58.20;;;26.08;;
82777;SDS011;72510;45.128;20.734;2024-01-15T00:36:54;72.97;;;33.45;;
82777;SDS011;72510;45.128;20.734;2024-01-15T00:46:55;45.10;;;21.75;;
82777;SDS011;72510;45.128;20.734;2024-01-15T00:56:56;23.83;;;15.38;;
82777;SDS011;72510;45.128;20.734;2024-01-15T01:06:58;31.85;;;16.23;;
82777;SDS011;72510;45.128;20.734;2024-01-15T01:16:59;43.63;;;21.75;;
82777;SDS011;72510;45.128;20.734;2024-01-15T01:27:00;38.67;;;18.55;;
82777;SDS011;72510;45.128;20.734;2024-01-15T01:37:02;29.73;;;15.20;;
82777;SDS011;72510;45.128;20.734;2024-01-15T01:47:03;31.48;;;15.80;;
82777;SDS011;72510;45.128;20.734;2024-01-15T01:57:05;36.17;;;17.63;;
82777;SDS011;72510;45.128;20.734;2024-01-15T02:07:07;31.95;;;15.88;;
82777;SDS011;72510;45.128;20.734;2024-01-15T02:17:10;30.25;;;16.60;;
82777;SDS011;72510;45.128;20.734;2024-01-15T02:27:11;30.35;;;15.70;;
82777;SDS011;72510;45.128;20.734;2024-01-15T02:37:13;26.85;;;14.23;;
82777;SDS011;72510;45.128;20.734;2024-01-15T02:47:18;31.88;;;14.77;;
82777;SDS011;72510;45.128;20.734;2024-01-15T02:57:22;24.10;;;13.20;;
82777;SDS011;72510;45.128;20.734;2024-01-15T03:07:23;23.73;;;12.77;;
82777;SDS011;72510;45.128;20.734;2024-01-15T03:17:27;23.63;;;11.13;;
82777;SDS011;72510;45.128;20.734;2024-01-15T03:27:29;23.38;;;13.90;;
82777;SDS011;72510;45.128;20.734;2024-01-15T03:37:30;25.85;;;13.57;;
82777;SDS011;72510;45.128;20.734;2024-01-15T03:47:32;28.35;;;15.85;;
82777;SDS011;72510;45.128;20.734;2024-01-15T03:57:33;27.98;;;14.02;;
82777;SDS011;72510;45.128;20.734;2024-01-15T04:07:35;23.48;;;12.32;;
82777;SDS011;72510;45.128;20.734;2024-01-15T04:17:36;34.35;;;15.70;;
82777;SDS011;72510;45.128;20.734;2024-01-15T04:27:38;40.33;;;19.85;;
82777;SDS011;72510;45.128;20.734;2024-01-15T04:37:39;33.00;;;15.73;;
82777;SDS011;72510;45.128;20.734;2024-01-15T04:47:41;34.28;;;15.07;;
82777;SDS011;72510;45.128;20.734;2024-01-15T04:57:49;44.63;;;18.77;;
82777;SDS011;72510;45.128;20.734;2024-01-15T05:07:52;33.35;;;15.90;;
82777;SDS011;72510;45.128;20.734;2024-01-15T05:17:58;25.17;;;12.35;;
82777;SDS011;72510;45.128;20.734;2024-01-15T05:28:00;21.90;;;11.45;;
82777;SDS011;72510;45.128;20.734;2024-01-15T05:38:02;29.83;;;14.20;;
82777;SDS011;72510;45.128;20.734;2024-01-15T05:48:04;29.55;;;14.27;;
82777;SDS011;72510;45.128;20.734;2024-01-15T05:58:08;29.65;;;13.77;;
82777;SDS011;72510;45.128;20.734;2024-01-15T06:08:10;79.97;;;34.80;;
82777;SDS011;72510;45.128;20.734;2024-01-15T06:18:12;67.60;;;24.73;;
82777;SDS011;72510;45.128;20.734;2024-01-15T06:28:13;43.58;;;19.80;;
82777;SDS011;72510;45.128;20.734;2024-01-15T06:38:14;41.55;;;18.30;;
82777;SDS011;72510;45.128;20.734;2024-01-15T06:48:16;25.35;;;14.50;;
82777;SDS011;72510;45.128;20.734;2024-01-15T06:58:17;20.95;;;9.32;;
82777;SDS011;72510;45.128;20.734;2024-01-15T07:08:18;41.00;;;14.18;;
82777;SDS011;72510;45.128;20.734;2024-01-15T07:18:20;52.03;;;20.75;;
82777;SDS011;72510;45.128;20.734;2024-01-15T07:28:22;34.03;;;16.45;;
82777;SDS011;72510;45.128;20.734;2024-01-15T07:38:24;25.42;;;13.40;;
82777;SDS011;72510;45.128;20.734;2024-01-15T07:48:25;18.17;;;10.23;;
82777;SDS011;72510;45.128;20.734;2024-01-15T07:58:26;23.45;;;11.05;;
82777;SDS011;72510;45.128;20.734;2024-01-15T08:08:28;25.77;;;13.85;;
82777;SDS011;72510;45.128;20.734;2024-01-15T08:18:29;37.38;;;16.75;;
82777;SDS011;72510;45.128;20.734;2024-01-15T08:28:32;59.13;;;25.15;;
82777;SDS011;72510;45.128;20.734;2024-01-15T08:38:33;57.88;;;25.55;;
82777;SDS011;72510;45.128;20.734;2024-01-15T08:48:35;26.63;;;12.95;;
82777;SDS011;72510;45.128;20.734;2024-01-15T08:58:36;26.52;;;14.05;;
82777;SDS011;72510;45.128;20.734;2024-01-15T09:08:37;23.77;;;13.73;;
82777;SDS011;72510;45.128;20.734;2024-01-15T09:18:39;38.30;;;21.42;;
82777;SDS011;72510;45.128;20.734;2024-01-15T09:28:43;23.92;;;10.57;;
82777;SDS011;72510;45.128;20.734;2024-01-15T09:38:44;22.52;;;12.38;;
82777;SDS011;72510;45.128;20.734;2024-01-15T09:48:46;41.10;;;19.67;;
82777;SDS011;72510;45.128;20.734;2024-01-15T09:58:47;10.85;;;6.80;;
82777;SDS011;72510;45.128;20.734;2024-01-15T10:08:50;32.85;;;17.88;;
82777;SDS011;72510;45.128;20.734;2024-01-15T10:18:52;24.85;;;12.88;;
82777;SDS011;72510;45.128;20.734;2024-01-15T10:28:53;39.90;;;20.65;;
82777;SDS011;72510;45.128;20.734;2024-01-15T10:38:56;45.90;;;22.13;;
82777;SDS011;72510;45.128;20.734;2024-01-15T10:48:58;32.65;;;16.75;;
82777;SDS011;72510;45.128;20.734;2024-01-15T10:59:00;39.45;;;19.52;;
82777;SDS011;72510;45.128;20.734;2024-01-15T11:09:02;28.67;;;15.48;;
82777;SDS011;72510;45.128;20.734;2024-01-15T11:19:05;39.05;;;19.70;;
82777;SDS011;72510;45.128;20.734;2024-01-15T11:29:30;32.67;;;18.83;;
82777;SDS011;72510;45.128;20.734;2024-01-15T11:39:41;63.92;;;29.77;;
82777;SDS011;72510;45.128;20.734;2024-01-15T11:59:54;18.42;;;10.57;;
82777;SDS011;72510;45.128;20.734;2024-01-15T12:09:55;32.08;;;15.43;;
82777;SDS011;72510;45.128;20.734;2024-01-15T12:19:57;32.70;;;16.35;;
82777;SDS011;72510;45.128;20.734;2024-01-15T12:29:58;31.15;;;18.20;;
82777;SDS011;72510;45.128;20.734;2024-01-15T12:40:00;40.95;;;21.30;;
82777;SDS011;72510;45.128;20.734;2024-01-15T12:50:01;56.30;;;23.08;;
82777;SDS011;72510;45.128;20.734;2024-01-15T13:00:09;40.17;;;19.13;;
82777;SDS011;72510;45.128;20.734;2024-01-15T13:10:14;46.80;;;23.17;;
82777;SDS011;72510;45.128;20.734;2024-01-15T13:20:15;39.10;;;18.73;;
82777;SDS011;72510;45.128;20.734;2024-01-15T13:30:16;37.60;;;19.35;;
82777;SDS011;72510;45.128;20.734;2024-01-15T13:40:19;59.22;;;30.33;;
82777;SDS011;72510;45.128;20.734;2024-01-15T13:50:20;19.98;;;11.20;;
82777;SDS011;72510;45.128;20.734;2024-01-15T14:00:22;14.55;;;9.07;;
82777;SDS011;72510;45.128;20.734;2024-01-15T14:10:24;22.70;;;12.82;;
82777;SDS011;72510;45.128;20.734;2024-01-15T14:20:25;24.40;;;12.55;;
82777;SDS011;72510;45.128;20.734;2024-01-15T14:30:27;21.92;;;10.93;;
82777;SDS011;72510;45.128;20.734;2024-01-15T14:40:28;20.15;;;11.25;;
82777;SDS011;72510;45.128;20.734;2024-01-15T14:50:30;25.05;;;13.60;;
82777;SDS011;72510;45.128;20.734;2024-01-15T15:00:31;19.77;;;10.60;;
82777;SDS011;72510;45.128;20.734;2024-01-15T15:10:32;20.13;;;10.75;;
82777;SDS011;72510;45.128;20.734;2024-01-15T15:20:37;15.55;;;10.13;;
82777;SDS011;72510;45.128;20.734;2024-01-15T15:30:42;18.15;;;8.70;;
82777;SDS011;72510;45.128;20.734;2024-01-15T15:40:44;14.43;;;8.43;;
82777;SDS011;72510;45.128;20.734;2024-01-15T15:50:47;18.52;;;8.35;;
82777;SDS011;72510;45.128;20.734;2024-01-15T16:01:01;13.32;;;7.43;;
82777;SDS011;72510;45.128;20.734;2024-01-15T16:11:03;10.95;;;6.78;;
82777;SDS011;72510;45.128;20.734;2024-01-15T16:21:04;12.63;;;6.65;;
82777;SDS011;72510;45.128;20.734;2024-01-15T16:31:06;4.80;;;3.22;;
82777;SDS011;72510;45.128;20.734;2024-01-15T16:41:07;6.25;;;3.92;;
82777;SDS011;72510;45.128;20.734;2024-01-15T16:51:09;5.35;;;4.13;;
82777;SDS011;72510;45.128;20.734;2024-01-15T17:01:11;3.22;;;2.53;;
82777;SDS011;72510;45.128;20.734;2024-01-15T17:11:13;3.80;;;2.40;;
82777;SDS011;72510;45.128;20.734;2024-01-15T17:21:14;2.75;;;1.60;;
82777;SDS011;72510;45.128;20.734;2024-01-15T17:31:16;3.05;;;1.67;;
82777;SDS011;72510;45.128;20.734;2024-01-15T17:41:17;7.82;;;2.30;;
82777;SDS011;72510;45.128;20.734;2024-01-15T17:51:19;1.90;;;1.15;;
82777;SDS011;72510;45.128;20.734;2024-01-15T18:01:21;4.07;;;2.42;;
82777;SDS011;72510;45.128;20.734;2024-01-15T18:11:22;1.55;;;0.90;;
82777;SDS011;72510;45.128;20.734;2024-01-15T18:21:28;4.63;;;2.38;;
82777;SDS011;72510;45.128;20.734;2024-01-15T18:31:29;4.32;;;1.75;;
82777;SDS011;72510;45.128;20.734;2024-01-15T18:41:30;1.98;;;1.10;;
82777;SDS011;72510;45.128;20.734;2024-01-15T18:51:31;7.25;;;3.25;;
82777;SDS011;72510;45.128;20.734;2024-01-15T19:01:33;4.45;;;2.58;;
82777;SDS011;72510;45.128;20.734;2024-01-15T19:11:35;2.80;;;2.15;;
82777;SDS011;72510;45.128;20.734;2024-01-15T19:21:36;3.80;;;1.92;;
82777;SDS011;72510;45.128;20.734;2024-01-15T19:31:38;5.97;;;3.53;;
82777;SDS011;72510;45.128;20.734;2024-01-15T19:41:40;7.55;;;3.35;;
82777;SDS011;72510;45.128;20.734;2024-01-15T19:51:42;4.85;;;2.83;;
82777;SDS011;72510;45.128;20.734;2024-01-15T20:01:46;5.82;;;3.30;;
82777;SDS011;72510;45.128;20.734;2024-01-15T20:21:50;1.65;;;0.95;;
82777;SDS011;72510;45.128;20.734;2024-01-15T20:31:51;4.50;;;2.47;;
82777;SDS011;72510;45.128;20.734;2024-01-15T20:41:54;7.78;;;3.90;;
82777;SDS011;72510;45.128;20.734;2024-01-15T20:52:03;2.63;;;2.03;;
82777;SDS011;72510;45.128;20.734;2024-01-15T21:02:05;7.55;;;3.38;;
82777;SDS011;72510;45.128;20.734;2024-01-15T21:12:12;11.10;;;5.18;;
82777;SDS011;72510;45.128;20.734;2024-01-15T21:22:13;11.98;;;5.95;;
82777;SDS011;72510;45.128;20.734;2024-01-15T21:32:18;7.25;;;3.83;;
82777;SDS011;72510;45.128;20.734;2024-01-15T21:42:20;13.48;;;6.82;;
82777;SDS011;72510;45.128;20.734;2024-01-15T21:52:21;12.75;;;6.85;;
82777;SDS011;72510;45.128;20.734;2024-01-15T22:02:22;10.65;;;5.55;;
82777;SDS011;72510;45.128;20.734;2024-01-15T22:12:25;13.20;;;5.45;;
82777;SDS011;72510;45.128;20.734;2024-01-15T22:22:35;9.85;;;5.25;;
82777;SDS011;72510;45.128;20.734;2024-01-15T22:32:40;14.82;;;5.93;;
82777;SDS011;72510;45.128;20.734;2024-01-15T22:42:43;13.25;;;6.80;;
82777;SDS011;72510;45.128;20.734;2024-01-15T22:52:49;8.48;;;5.03;;
82777;SDS011;72510;45.128;20.734;2024-01-15T23:02:53;7.63;;;3.90;;
82777;SDS011;72510;45.128;20.734;2024-01-15T23:12:57;21.25;;;8.85;;
82777;SDS011;72510;45.128;20.734;2024-01-15T23:22:59;46.85;;;22.33;;
82777;SDS011;72510;45.128;20.734;2024-01-15T23:33:01;78.40;;;32.75;;
82777;SDS011;72510;45.128;20.734;2024-01-15T23:43:03;105.80;;;44.15;;
82777;SDS011;72510;45.128;20.734;2024-01-15T23:53:06;95.60;;;40.63;;
